Terminal Aerodrome Forecast
Issued by NWS

Home | Current Version | Previous Version | Text Only | Print | Product List | Glossary On
Versions: 1 2 3 4 5 6 7 8 9 10 11 12 13 14 15 16 17
000
FTUS46 KSEW 280500
TAFOLM
TAF
KOLM 280530Z 2806/2906 22006KT P6SM -RA SCT013 BKN040 OVC060
      TEMPO 2806/2810 P6SM -RA BKN013 OVC025
     FM281000 23010G18KT P6SM -SHRA BKN013 OVC030
      TEMPO 2812/2816 P6SM -SHRA OVC007
     FM281800 23006KT P6SM VCSH SCT020 BKN040 BKN070=

USA.gov is the U.S. government's official web portal to all federal, state and local government web resources and services.